Home PIREPS Pireps

Flight SAB2809

  • Submitted By: Vincent Fourni
  • Departure Airport: Bruxelles National (EBBR)
  • Arrival Airport: Praha - Ruzyne (LKPR)
  • Aircraft: B737-500 (OO-SAB)
  • Flight Time: 01.56
  • Date Submitted: 03/06/2016
  • Status: Accepted
Flight Details
Gross Revenue:
(120 load / € 0.00 per unit
€ 0.00
Fuel Cost:
(4098 fuel used @ 5.1 / unit)
€ 20,899.80

Additional Log Information:

View Log

Aircraft Used in flight is PMDG 737-800NGX Brussels Airlines Winglets
20:36 Brakes are On
21:00 Brakes are Released
21:02 Brakes are On
21:04 Brakes are Released
21:09 You Took off @ 173 Knots and Flaps at Position 3
Departure Weather
EBBR 031850Z 33006KT 300V360 5000 BR SCT016 BKN020 BKN040 17/14 Q1013 TEMPO BKN012rn
21:10 You exceeded maximum bank angle
21:10 Landing Gear Up @ 176 Knots and 2750 Feet
21:13 Below 10000 feet you are not allowed to go over 250 knots
21:14 Above FL100 you need to switch of the landing lights
21:59 Above FL100 you need to switch of the landing lights
22:21 Landing Gear Down @ 178 Knots and 3100 Feet
22:23 You Landed @ 137 Knots and with -150 Vertical Speed
Arrival Weather
LKPR 032000Z 07002KT CAVOK 17/14 Q1011 NOSIGrn
22:33 Brussels Bel-Track1.0.1.2

Route Map

Corporate About Us Our Team Vacancies Information Fleet Route Network Rules and Regulations Operations Flight Schedules Event Center Tours Partners IVAO Vatsim Acars dev FSCB

fb Users Online Belgium Bennie Peeters, South Africa Marc Toussaint,
3 Pilot(s) and 143 Guest(s) Online
CMS by phpVMS - Design by Crazycreatives.com - Copyright © 2020 - Brussels Airlines Virtual